KAXV/AXV METAR and TAF weather

Enter ICAO airport designator
Station Type Date Time Source
KAXV METAR 2021/05/15 23:15 UTC NOAA

KAXV 152315Z AUTO 18004KT 10SM 19/02 A3019 RMK AO2


Station Type Date Time Source
KAXV Decoded METAR 2021/05/15 23:15 UTC NOAA

Station name not available
May 15, 2021 - 07:15 PM EDT / 2021.05.15 2315 UTC
Wind: from the S (180 degrees) at 5 MPH (4 KT):0
Visibility: 10 mile(s):0
Temperature: 66 F (19 C)
Dew Point: 35 F (2 C)
Relative Humidity: 32%
Pressure (altimeter): 30.19 in. Hg (1022 hPa)
ob: KAXV 152315Z AUTO 18004KT 10SM 19/02 A3019 RMK AO2
cycle: 23

Station Type Date Time Source
KAXV TAF UTC NOAA

Error!

Example: see airport list